sensor_id;sensor_type;location;lat;lon;timestamp;P1;P2;P0
77413;PMS7003;66486;49.992;19.164;2023-04-24T00:00:28;58.80;52.80;29.60
77413;PMS7003;66486;49.992;19.164;2023-04-24T00:03:15;66.80;55.00;34.00
77413;PMS7003;66486;49.992;19.164;2023-04-24T00:05:41;61.80;54.00;33.80
77413;PMS7003;66486;49.992;19.164;2023-04-24T00:08:07;61.00;50.50;33.00
77413;PMS7003;66486;49.992;19.164;2023-04-24T00:10:33;64.80;56.60;34.00
77413;PMS7003;66486;49.992;19.164;2023-04-24T00:12:59;66.75;55.25;34.00
77413;PMS7003;66486;49.992;19.164;2023-04-24T00:15:25;62.00;54.00;34.00
77413;PMS7003;66486;49.992;19.164;2023-04-24T00:17:50;55.00;49.75;32.50
77413;PMS7003;66486;49.992;19.164;2023-04-24T00:20:18;71.60;58.80;38.20
77413;PMS7003;66486;49.992;19.164;2023-04-24T00:22:44;30.50;26.75;1.00
77413;PMS7003;66486;49.992;19.164;2023-04-24T00:25:10;56.80;50.80;33.20
77413;PMS7003;66486;49.992;19.164;2023-04-24T00:27:36;68.50;57.00;35.50
77413;PMS7003;66486;49.992;19.164;2023-04-24T00:30:02;61.20;48.40;26.60
77413;PMS7003;66486;49.992;19.164;2023-04-24T00:32:29;67.40;55.20;34.00
77413;PMS7003;66486;49.992;19.164;2023-04-24T00:34:55;66.40;55.80;34.60
77413;PMS7003;66486;49.992;19.164;2023-04-24T00:37:21;68.00;56.50;34.50
77413;PMS7003;66486;49.992;19.164;2023-04-24T00:39:47;74.20;61.80;39.40
77413;PMS7003;66486;49.992;19.164;2023-04-24T00:42:13;72.75;60.75;36.50
77413;PMS7003;66486;49.992;19.164;2023-04-24T00:44:39;67.40;56.60;34.00
77413;PMS7003;66486;49.992;19.164;2023-04-24T00:47:05;61.25;53.00;34.00
77413;PMS7003;66486;49.992;19.164;2023-04-24T00:49:31;69.80;58.40;34.00
77413;PMS7003;66486;49.992;19.164;2023-04-24T00:51:57;63.40;52.80;33.00
77413;PMS7003;66486;49.992;19.164;2023-04-24T00:54:25;70.40;58.80;36.00
77413;PMS7003;66486;49.992;19.164;2023-04-24T00:56:50;65.50;54.25;33.75
77413;PMS7003;66486;49.992;19.164;2023-04-24T00:59:17;67.40;56.20;36.00
77413;PMS7003;66486;49.992;19.164;2023-04-24T01:01:43;53.40;48.80;24.20
77413;PMS7003;66486;49.992;19.164;2023-04-24T01:04:11;72.60;57.60;36.00
77413;PMS7003;66486;49.992;19.164;2023-04-24T01:06:40;69.80;57.00;34.00
77413;PMS7003;66486;49.992;19.164;2023-04-24T01:09:10;64.20;54.40;33.60
77413;PMS7003;66486;49.992;19.164;2023-04-24T01:11:37;45.60;44.00;29.60
77413;PMS7003;66486;49.992;19.164;2023-04-24T01:14:03;65.20;51.40;32.60
77413;PMS7003;66486;49.992;19.164;2023-04-24T01:16:29;63.75;53.00;33.00
77413;PMS7003;66486;49.992;19.164;2023-04-24T01:18:55;62.00;52.20;31.40
77413;PMS7003;66486;49.992;19.164;2023-04-24T01:21:21;53.75;48.50;30.00
77413;PMS7003;66486;49.992;19.164;2023-04-24T01:23:53;52.80;47.60;29.60
77413;PMS7003;66486;49.992;19.164;2023-04-24T01:26:19;43.50;41.00;24.00
77413;PMS7003;66486;49.992;19.164;2023-04-24T01:28:46;42.40;40.80;22.80
77413;PMS7003;66486;49.992;19.164;2023-04-24T01:31:13;53.60;48.80;28.80
77413;PMS7003;66486;49.992;19.164;2023-04-24T01:33:41;44.60;41.40;25.00
77413;PMS7003;66486;49.992;19.164;2023-04-24T01:36:07;47.60;44.20;27.00
77413;PMS7003;66486;49.992;19.164;2023-04-24T01:38:36;40.00;37.40;26.60
77413;PMS7003;66486;49.992;19.164;2023-04-24T01:41:02;38.50;37.75;24.00
77413;PMS7003;66486;49.992;19.164;2023-04-24T01:43:28;27.00;26.20;18.80
77413;PMS7003;66486;49.992;19.164;2023-04-24T01:45:54;33.40;30.80;20.80
77413;PMS7003;66486;49.992;19.164;2023-04-24T01:48:20;38.20;38.20;25.00
77413;PMS7003;66486;49.992;19.164;2023-04-24T01:50:46;29.00;27.00;17.60
77413;PMS7003;66486;49.992;19.164;2023-04-24T01:53:12;37.00;36.40;23.60
77413;PMS7003;66486;49.992;19.164;2023-04-24T01:55:38;35.50;34.25;23.75
77413;PMS7003;66486;49.992;19.164;2023-04-24T01:58:04;33.00;33.00;24.00
77413;PMS7003;66486;49.992;19.164;2023-04-24T02:00:30;38.00;36.60;22.00
77413;PMS7003;66486;49.992;19.164;2023-04-24T02:02:57;36.40;34.20;23.60
77413;PMS7003;66486;49.992;19.164;2023-04-24T02:05:22;35.00;32.50;18.50
77413;PMS7003;66486;49.992;19.164;2023-04-24T02:07:48;25.60;24.80;17.20
77413;PMS7003;66486;49.992;19.164;2023-04-24T02:10:14;41.00;37.00;24.25
77413;PMS7003;66486;49.992;19.164;2023-04-24T02:12:40;31.60;31.20;21.20
77413;PMS7003;66486;49.992;19.164;2023-04-24T02:15:06;26.75;26.75;17.50
77413;PMS7003;66486;49.992;19.164;2023-04-24T02:17:33;33.60;28.40;13.60
77413;PMS7003;66486;49.992;19.164;2023-04-24T02:19:59;32.80;32.20;21.60
77413;PMS7003;66486;49.992;19.164;2023-04-24T02:22:25;38.00;35.20;22.80
77413;PMS7003;66486;49.992;19.164;2023-04-24T02:24:50;31.50;31.50;18.25
77413;PMS7003;66486;49.992;19.164;2023-04-24T02:27:16;35.00;33.40;23.20
77413;PMS7003;66486;49.992;19.164;2023-04-24T02:29:42;29.00;28.75;20.50
77413;PMS7003;66486;49.992;19.164;2023-04-24T02:32:08;29.20;29.20;17.80
77413;PMS7003;66486;49.992;19.164;2023-04-24T02:34:37;29.20;29.20;20.20
77413;PMS7003;66486;49.992;19.164;2023-04-24T02:37:04;24.60;24.40;15.20
77413;PMS7003;66486;49.992;19.164;2023-04-24T02:39:30;29.20;27.40;19.40
77413;PMS7003;66486;49.992;19.164;2023-04-24T02:41:56;31.60;28.80;19.40
77413;PMS7003;66486;49.992;19.164;2023-04-24T02:44:21;38.50;33.00;20.25
77413;PMS7003;66486;49.992;19.164;2023-04-24T02:46:48;26.60;26.60;19.00
77413;PMS7003;66486;49.992;19.164;2023-04-24T02:49:14;30.00;29.25;19.00
77413;PMS7003;66486;49.992;19.164;2023-04-24T02:51:40;27.20;26.20;19.80
77413;PMS7003;66486;49.992;19.164;2023-04-24T02:54:07;34.20;30.00;19.00
77413;PMS7003;66486;49.992;19.164;2023-04-24T02:56:35;35.20;31.40;20.80
77413;PMS7003;66486;49.992;19.164;2023-04-24T02:59:01;29.00;28.40;17.80
77413;PMS7003;66486;49.992;19.164;2023-04-24T03:01:27;28.80;27.80;16.40
77413;PMS7003;66486;49.992;19.164;2023-04-24T03:03:53;34.75;31.50;20.00
77413;PMS7003;66486;49.992;19.164;2023-04-24T03:06:19;30.20;30.20;21.40
77413;PMS7003;66486;49.992;19.164;2023-04-24T03:08:46;33.00;31.60;21.20
77413;PMS7003;66486;49.992;19.164;2023-04-24T03:11:12;30.40;28.40;21.40
77413;PMS7003;66486;49.992;19.164;2023-04-24T03:13:38;27.00;26.00;18.75
77413;PMS7003;66486;49.992;19.164;2023-04-24T03:16:04;32.80;32.80;20.60
77413;PMS7003;66486;49.992;19.164;2023-04-24T03:18:30;34.00;32.00;21.80
77413;PMS7003;66486;49.992;19.164;2023-04-24T03:20:57;31.80;30.20;18.60
77413;PMS7003;66486;49.992;19.164;2023-04-24T03:23:23;31.00;31.00;19.00
77413;PMS7003;66486;49.992;19.164;2023-04-24T03:25:49;34.80;31.60;22.00
77413;PMS7003;66486;49.992;19.164;2023-04-24T03:28:14;23.00;23.00;18.00
77413;PMS7003;66486;49.992;19.164;2023-04-24T03:30:41;34.60;31.40;21.80
77413;PMS7003;66486;49.992;19.164;2023-04-24T03:33:06;30.50;30.50;21.00
77413;PMS7003;66486;49.992;19.164;2023-04-24T03:35:33;33.00;32.60;23.60
77413;PMS7003;66486;49.992;19.164;2023-04-24T03:37:58;33.75;32.75;21.25
77413;PMS7003;66486;49.992;19.164;2023-04-24T03:40:25;26.20;26.20;18.00
77413;PMS7003;66486;49.992;19.164;2023-04-24T03:42:50;28.75;28.50;16.25
77413;PMS7003;66486;49.992;19.164;2023-04-24T03:45:16;36.00;31.20;19.80
77413;PMS7003;66486;49.992;19.164;2023-04-24T03:47:42;37.25;31.25;20.50
77413;PMS7003;66486;49.992;19.164;2023-04-24T03:50:08;37.40;35.20;22.80
77413;PMS7003;66486;49.992;19.164;2023-04-24T03:52:35;22.40;22.40;18.80
77413;PMS7003;66486;49.992;19.164;2023-04-24T03:55:01;37.80;37.80;24.60
77413;PMS7003;66486;49.992;19.164;2023-04-24T03:57:27;34.75;32.00;22.00
77413;PMS7003;66486;49.992;19.164;2023-04-24T03:59:53;37.80;34.00;24.00
77413;PMS7003;66486;49.992;19.164;2023-04-24T04:02:19;37.80;36.40;22.40
77413;PMS7003;66486;49.992;19.164;2023-04-24T04:04:45;36.20;36.20;26.20
77413;PMS7003;66486;49.992;19.164;2023-04-24T04:07:11;34.50;34.00;22.50
77413;PMS7003;66486;49.992;19.164;2023-04-24T04:09:38;37.80;37.80;24.40
77413;PMS7003;66486;49.992;19.164;2023-04-24T04:12:04;26.00;26.00;21.00
77413;PMS7003;66486;49.992;19.164;2023-04-24T04:14:30;36.20;33.80;22.00
77413;PMS7003;66486;49.992;19.164;2023-04-24T04:16:56;36.50;33.75;23.50
77413;PMS7003;66486;49.992;19.164;2023-04-24T04:19:22;43.20;40.40;25.40
77413;PMS7003;66486;49.992;19.164;2023-04-24T04:21:48;27.75;27.00;20.00
77413;PMS7003;66486;49.992;19.164;2023-04-24T04:24:19;34.80;33.20;21.80
77413;PMS7003;66486;49.992;19.164;2023-04-24T04:26:49;34.00;32.00;24.00
77413;PMS7003;66486;49.992;19.164;2023-04-24T04:29:17;22.00;22.00;11.20
77413;PMS7003;66486;49.992;19.164;2023-04-24T04:31:47;31.00;31.00;18.80
77413;PMS7003;66486;49.992;19.164;2023-04-24T04:34:14;37.80;37.80;24.20
77413;PMS7003;66486;49.992;19.164;2023-04-24T04:36:40;31.00;31.00;19.50
77413;PMS7003;66486;49.992;19.164;2023-04-24T04:39:07;31.80;31.00;20.60
77413;PMS7003;66486;49.992;19.164;2023-04-24T04:41:32;30.25;30.00;19.00
77413;PMS7003;66486;49.992;19.164;2023-04-24T04:44:01;33.00;32.60;21.00
77413;PMS7003;66486;49.992;19.164;2023-04-24T04:46:30;29.20;29.00;21.00
77413;PMS7003;66486;49.992;19.164;2023-04-24T04:48:58;26.60;25.40;18.00
77413;PMS7003;66486;49.992;19.164;2023-04-24T04:51:25;28.00;28.00;19.40
77413;PMS7003;66486;49.992;19.164;2023-04-24T04:53:51;28.80;26.80;18.60
77413;PMS7003;66486;49.992;19.164;2023-04-24T04:56:17;36.25;31.00;18.25
77413;PMS7003;66486;49.992;19.164;2023-04-24T04:58:43;35.00;31.40;21.20
77413;PMS7003;66486;49.992;19.164;2023-04-24T05:01:09;25.00;24.50;15.75
77413;PMS7003;66486;49.992;19.164;2023-04-24T05:03:35;29.20;27.20;18.40
77413;PMS7003;66486;49.992;19.164;2023-04-24T05:06:01;14.00;11.00;6.00
77413;PMS7003;66486;49.992;19.164;2023-04-24T05:08:27;26.60;26.60;18.40
77413;PMS7003;66486;49.992;19.164;2023-04-24T05:10:54;24.75;24.25;15.00
77413;PMS7003;66486;49.992;19.164;2023-04-24T05:13:21;30.60;30.60;21.60
77413;PMS7003;66486;49.992;19.164;2023-04-24T05:15:46;26.20;26.20;21.00
77413;PMS7003;66486;49.992;19.164;2023-04-24T05:18:12;28.40;28.00;18.60
77413;PMS7003;66486;49.992;19.164;2023-04-24T05:20:38;18.00;16.00;13.50
77413;PMS7003;66486;49.992;19.164;2023-04-24T05:23:04;26.60;25.80;17.20
77413;PMS7003;66486;49.992;19.164;2023-04-24T05:25:30;23.50;23.50;18.00
77413;PMS7003;66486;49.992;19.164;2023-04-24T05:28:01;27.40;27.40;19.00
77413;PMS7003;66486;49.992;19.164;2023-04-24T05:30:27;30.40;27.40;19.60
77413;PMS7003;66486;49.992;19.164;2023-04-24T05:32:53;31.60;31.40;19.80
77413;PMS7003;66486;49.992;19.164;2023-04-24T05:35:19;27.75;27.75;19.75
77413;PMS7003;66486;49.992;19.164;2023-04-24T05:37:45;25.40;25.40;19.20
77413;PMS7003;66486;49.992;19.164;2023-04-24T05:40:11;32.25;29.00;20.00
77413;PMS7003;66486;49.992;19.164;2023-04-24T05:42:37;28.60;27.80;19.60
77413;PMS7003;66486;49.992;19.164;2023-04-24T05:45:03;27.25;27.25;19.00
77413;PMS7003;66486;49.992;19.164;2023-04-24T05:47:30;30.80;29.40;21.00
77413;PMS7003;66486;49.992;19.164;2023-04-24T05:49:56;24.25;24.25;18.00
77413;PMS7003;66486;49.992;19.164;2023-04-24T05:52:22;20.40;19.40;17.20
77413;PMS7003;66486;49.992;19.164;2023-04-24T05:54:48;23.50;23.50;19.00
77413;PMS7003;66486;49.992;19.164;2023-04-24T05:57:14;27.40;24.60;15.20
77413;PMS7003;66486;49.992;19.164;2023-04-24T05:59:40;27.50;25.75;19.00
77413;PMS7003;66486;49.992;19.164;2023-04-24T06:02:06;23.20;23.20;17.00
77413;PMS7003;66486;49.992;19.164;2023-04-24T06:04:32;20.00;20.00;15.00
77413;PMS7003;66486;49.992;19.164;2023-04-24T06:06:59;22.00;21.60;16.20
77413;PMS7003;66486;49.992;19.164;2023-04-24T06:09:25;23.40;22.00;16.40
77413;PMS7003;66486;49.992;19.164;2023-04-24T06:11:51;27.60;27.00;18.60
77413;PMS7003;66486;49.992;19.164;2023-04-24T06:14:18;25.40;25.40;17.80
77413;PMS7003;66486;49.992;19.164;2023-04-24T06:16:45;23.00;23.00;15.00
77413;PMS7003;66486;49.992;19.164;2023-04-24T06:19:11;22.50;21.25;16.00
77413;PMS7003;66486;49.992;19.164;2023-04-24T06:21:37;24.60;24.20;17.80
77413;PMS7003;66486;49.992;19.164;2023-04-24T06:24:03;19.50;19.00;14.25
77413;PMS7003;66486;49.992;19.164;2023-04-24T06:26:30;18.60;17.80;13.80
77413;PMS7003;66486;49.992;19.164;2023-04-24T06:28:56;19.00;18.50;14.50
77413;PMS7003;66486;49.992;19.164;2023-04-24T06:31:24;20.40;19.80;13.20
77413;PMS7003;66486;49.992;19.164;2023-04-24T06:33:50;20.20;20.20;14.20
77413;PMS7003;66486;49.992;19.164;2023-04-24T06:36:16;20.00;19.60;14.60
77413;PMS7003;66486;49.992;19.164;2023-04-24T06:38:42;22.00;21.00;16.40
77413;PMS7003;66486;49.992;19.164;2023-04-24T06:41:09;16.60;16.60;13.00
77413;PMS7003;66486;49.992;19.164;2023-04-24T06:43:35;14.60;14.60;10.00
77413;PMS7003;66486;49.992;19.164;2023-04-24T06:46:01;20.60;19.00;16.20
77413;PMS7003;66486;49.992;19.164;2023-04-24T06:48:28;13.60;13.20;10.40
77413;PMS7003;66486;49.992;19.164;2023-04-24T06:50:55;20.80;19.80;13.80
77413;PMS7003;66486;49.992;19.164;2023-04-24T06:53:21;16.00;16.00;11.25
77413;PMS7003;66486;49.992;19.164;2023-04-24T06:55:47;20.80;20.80;14.00
77413;PMS7003;66486;49.992;19.164;2023-04-24T06:58:12;18.75;18.50;13.75
77413;PMS7003;66486;49.992;19.164;2023-04-24T07:00:40;21.40;21.20;15.00
77413;PMS7003;66486;49.992;19.164;2023-04-24T07:03:06;18.40;17.40;13.00
77413;PMS7003;66486;49.992;19.164;2023-04-24T07:05:32;21.75;21.75;14.50
77413;PMS7003;66486;49.992;19.164;2023-04-24T07:08:00;21.75;21.50;14.00
77413;PMS7003;66486;49.992;19.164;2023-04-24T07:10:27;23.00;22.50;15.25
77413;PMS7003;66486;49.992;19.164;2023-04-24T07:12:54;25.25;22.75;16.25
77413;PMS7003;66486;49.992;19.164;2023-04-24T07:15:22;22.25;22.25;17.00
77413;PMS7003;66486;49.992;19.164;2023-04-24T07:17:49;21.50;21.50;16.50
77413;PMS7003;66486;49.992;19.164;2023-04-24T07:20:15;16.00;12.25;11.00
77413;PMS7003;66486;49.992;19.164;2023-04-24T07:22:41;21.33;21.33;14.67
77413;PMS7003;66486;49.992;19.164;2023-04-24T07:25:07;21.00;18.25;13.25
77413;PMS7003;66486;49.992;19.164;2023-04-24T07:27:34;16.50;16.25;12.75
77413;PMS7003;66486;49.992;19.164;2023-04-24T07:30:02;13.50;13.50;11.00
77413;PMS7003;66486;49.992;19.164;2023-04-24T07:32:29;16.75;16.50;12.50
77413;PMS7003;66486;49.992;19.164;2023-04-24T07:34:56;17.25;16.50;12.75
77413;PMS7003;66486;49.992;19.164;2023-04-24T07:37:22;15.67;15.67;12.00
77413;PMS7003;66486;49.992;19.164;2023-04-24T07:39:48;14.00;14.00;12.25
77413;PMS7003;66486;49.992;19.164;2023-04-24T07:42:14;17.00;16.00;11.00
77413;PMS7003;66486;49.992;19.164;2023-04-24T07:44:40;16.00;14.50;11.75
77413;PMS7003;66486;49.992;19.164;2023-04-24T07:47:06;15.67;15.67;12.00
77413;PMS7003;66486;49.992;19.164;2023-04-24T07:49:33;14.50;14.50;12.25
77413;PMS7003;66486;49.992;19.164;2023-04-24T07:52:00;15.00;14.00;11.75
77413;PMS7003;66486;49.992;19.164;2023-04-24T07:54:28;14.50;14.50;12.50
77413;PMS7003;66486;49.992;19.164;2023-04-24T07:56:54;15.00;14.75;12.00
77413;PMS7003;66486;49.992;19.164;2023-04-24T07:59:20;14.75;14.75;12.00
77413;PMS7003;66486;49.992;19.164;2023-04-24T08:01:46;12.00;12.00;9.67
77413;PMS7003;66486;49.992;19.164;2023-04-24T08:04:12;16.00;16.00;13.75
77413;PMS7003;66486;49.992;19.164;2023-04-24T08:06:38;12.33;12.33;10.33
77413;PMS7003;66486;49.992;19.164;2023-04-24T08:09:04;19.75;19.00;14.75
77413;PMS7003;66486;49.992;19.164;2023-04-24T08:11:30;17.00;17.00;12.67
77413;PMS7003;66486;49.992;19.164;2023-04-24T08:13:57;14.00;14.00;10.00
77413;PMS7003;66486;49.992;19.164;2023-04-24T08:16:23;13.33;13.33;10.67
77413;PMS7003;66486;49.992;19.164;2023-04-24T08:18:49;13.25;13.25;11.00
77413;PMS7003;66486;49.992;19.164;2023-04-24T08:21:15;16.00;15.75;12.25
77413;PMS7003;66486;49.992;19.164;2023-04-24T08:23:44;9.00;8.00;5.00
77413;PMS7003;66486;49.992;19.164;2023-04-24T08:26:11;14.00;14.00;11.75
77413;PMS7003;66486;49.992;19.164;2023-04-24T08:28:38;14.25;14.25;11.00
77413;PMS7003;66486;49.992;19.164;2023-04-24T08:31:04;13.25;13.25;10.50
77413;PMS7003;66486;49.992;19.164;2023-04-24T08:33:30;11.75;11.75;10.25
77413;PMS7003;66486;49.992;19.164;2023-04-24T08:36:06;14.75;13.25;10.25
77413;PMS7003;66486;49.992;19.164;2023-04-24T08:38:33;17.25;16.00;12.50
77413;PMS7003;66486;49.992;19.164;2023-04-24T08:40:59;10.75;10.75;9.00
77413;PMS7003;66486;49.992;19.164;2023-04-24T08:43:26;13.75;13.75;11.50
77413;PMS7003;66486;49.992;19.164;2023-04-24T08:45:53;13.50;13.50;10.50
77413;PMS7003;66486;49.992;19.164;2023-04-24T08:48:22;13.75;13.75;10.50
77413;PMS7003;66486;49.992;19.164;2023-04-24T08:50:48;11.00;11.00;10.00
77413;PMS7003;66486;49.992;19.164;2023-04-24T08:53:17;12.75;12.75;11.00
77413;PMS7003;66486;49.992;19.164;2023-04-24T08:55:43;14.50;14.50;11.50
77413;PMS7003;66486;49.992;19.164;2023-04-24T08:58:14;13.00;12.50;9.50
77413;PMS7003;66486;49.992;19.164;2023-04-24T09:00:41;18.25;17.75;12.50
77413;PMS7003;66486;49.992;19.164;2023-04-24T09:03:15;14.00;14.00;12.00
77413;PMS7003;66486;49.992;19.164;2023-04-24T09:05:46;13.25;13.25;10.75
77413;PMS7003;66486;49.992;19.164;2023-04-24T09:08:13;12.40;12.40;10.20
77413;PMS7003;66486;49.992;19.164;2023-04-24T09:10:39;14.00;14.00;10.50
77413;PMS7003;66486;49.992;19.164;2023-04-24T09:13:06;14.00;13.60;10.60
77413;PMS7003;66486;49.992;19.164;2023-04-24T09:15:35;13.40;12.40;10.60
77413;PMS7003;66486;49.992;19.164;2023-04-24T09:18:02;13.75;13.75;11.75
77413;PMS7003;66486;49.992;19.164;2023-04-24T09:20:29;13.00;13.00;10.60
77413;PMS7003;66486;49.992;19.164;2023-04-24T09:22:56;12.50;12.50;10.25
77413;PMS7003;66486;49.992;19.164;2023-04-24T09:25:25;12.80;12.20;9.20
77413;PMS7003;66486;49.992;19.164;2023-04-24T09:28:00;15.40;15.40;12.40
77413;PMS7003;66486;49.992;19.164;2023-04-24T09:30:28;16.00;15.80;11.80
77413;PMS7003;66486;49.992;19.164;2023-04-24T09:33:10;12.40;12.40;9.60
77413;PMS7003;66486;49.992;19.164;2023-04-24T09:35:41;14.00;14.00;10.60
77413;PMS7003;66486;49.992;19.164;2023-04-24T09:38:11;11.80;11.80;9.00
77413;PMS7003;66486;49.992;19.164;2023-04-24T09:40:37;13.00;13.00;11.75
77413;PMS7003;66486;49.992;19.164;2023-04-24T09:43:03;16.20;15.20;11.80
77413;PMS7003;66486;49.992;19.164;2023-04-24T09:45:35;14.00;14.00;12.00
77413;PMS7003;66486;49.992;19.164;2023-04-24T09:48:02;10.40;10.40;7.20
77413;PMS7003;66486;49.992;19.164;2023-04-24T09:50:30;15.40;15.40;12.00
77413;PMS7003;66486;49.992;19.164;2023-04-24T09:53:03;14.00;14.00;11.25
77413;PMS7003;66486;49.992;19.164;2023-04-24T09:55:30;14.50;14.50;11.75
77413;PMS7003;66486;49.992;19.164;2023-04-24T09:58:00;17.00;17.00;13.75
77413;PMS7003;66486;49.992;19.164;2023-04-24T10:00:31;12.50;12.50;11.00
77413;PMS7003;66486;49.992;19.164;2023-04-24T10:03:02;23.00;22.25;16.25
77413;PMS7003;66486;49.992;19.164;2023-04-24T10:05:31;22.25;21.50;15.00
77413;PMS7003;66486;49.992;19.164;2023-04-24T10:08:05;17.00;17.00;12.50
77413;PMS7003;66486;49.992;19.164;2023-04-24T10:10:33;14.25;14.25;11.50
77413;PMS7003;66486;49.992;19.164;2023-04-24T10:13:02;22.25;21.25;14.25
77413;PMS7003;66486;49.992;19.164;2023-04-24T10:15:29;18.50;18.50;15.75
77413;PMS7003;66486;49.992;19.164;2023-04-24T10:17:57;18.75;18.75;14.00
77413;PMS7003;66486;49.992;19.164;2023-04-24T10:20:25;19.00;19.00;14.00
77413;PMS7003;66486;49.992;19.164;2023-04-24T10:22:55;16.00;15.50;10.50
77413;PMS7003;66486;49.992;19.164;2023-04-24T10:25:23;18.00;18.00;13.25
77413;PMS7003;66486;49.992;19.164;2023-04-24T10:27:51;19.25;19.25;13.25
77413;PMS7003;66486;49.992;19.164;2023-04-24T10:30:18;13.75;13.75;11.25
77413;PMS7003;66486;49.992;19.164;2023-04-24T10:32:45;15.50;15.50;12.75
77413;PMS7003;66486;49.992;19.164;2023-04-24T10:35:12;11.00;11.00;8.00
77413;PMS7003;66486;49.992;19.164;2023-04-24T10:37:41;15.50;15.50;11.00
77413;PMS7003;66486;49.992;19.164;2023-04-24T10:40:12;18.25;18.25;14.00
77413;PMS7003;66486;49.992;19.164;2023-04-24T10:42:43;16.75;16.75;14.00
77413;PMS7003;66486;49.992;19.164;2023-04-24T10:45:19;20.25;18.50;13.00
77413;PMS7003;66486;49.992;19.164;2023-04-24T10:48:03;18.25;18.25;13.25
77413;PMS7003;66486;49.992;19.164;2023-04-24T10:50:52;16.50;16.50;13.00
77413;PMS7003;66486;49.992;19.164;2023-04-24T10:53:19;13.75;13.75;10.75
77413;PMS7003;66486;49.992;19.164;2023-04-24T10:55:52;19.75;19.50;13.25
77413;PMS7003;66486;49.992;19.164;2023-04-24T10:58:25;19.75;19.75;16.00
77413;PMS7003;66486;49.992;19.164;2023-04-24T11:01:05;22.00;22.00;15.50
77413;PMS7003;66486;49.992;19.164;2023-04-24T11:03:33;20.25;20.25;15.75
77413;PMS7003;66486;49.992;19.164;2023-04-24T11:06:03;21.75;21.50;15.50
77413;PMS7003;66486;49.992;19.164;2023-04-24T11:08:43;17.00;16.50;13.25
77413;PMS7003;66486;49.992;19.164;2023-04-24T11:11:14;15.75;15.75;13.25
77413;PMS7003;66486;49.992;19.164;2023-04-24T11:24:28;15.00;15.00;11.00
77413;PMS7003;66486;49.992;19.164;2023-04-24T11:32:17;16.25;15.50;12.50
77413;PMS7003;66486;49.992;19.164;2023-04-24T11:34:45;14.75;14.75;11.50
77413;PMS7003;66486;49.992;19.164;2023-04-24T11:37:12;19.75;19.75;14.00
77413;PMS7003;66486;49.992;19.164;2023-04-24T11:39:40;13.00;13.00;9.75
77413;PMS7003;66486;49.992;19.164;2023-04-24T11:42:06;18.75;18.50;14.00
77413;PMS7003;66486;49.992;19.164;2023-04-24T11:44:33;14.50;14.50;9.75
77413;PMS7003;66486;49.992;19.164;2023-04-24T11:47:05;17.25;17.25;12.25
77413;PMS7003;66486;49.992;19.164;2023-04-24T11:49:37;19.50;18.75;13.00
77413;PMS7003;66486;49.992;19.164;2023-04-24T11:52:04;18.25;18.25;15.00
77413;PMS7003;66486;49.992;19.164;2023-04-24T11:54:31;18.50;18.50;13.75
77413;PMS7003;66486;49.992;19.164;2023-04-24T11:56:57;14.00;14.00;12.00
77413;PMS7003;66486;49.992;19.164;2023-04-24T11:59:23;17.50;17.50;12.00
77413;PMS7003;66486;49.992;19.164;2023-04-24T12:01:49;22.00;21.33;15.67
77413;PMS7003;66486;49.992;19.164;2023-04-24T12:04:16;17.25;17.25;12.25
77413;PMS7003;66486;49.992;19.164;2023-04-24T12:06:58;16.00;16.00;13.00
77413;PMS7003;66486;49.992;19.164;2023-04-24T12:09:26;18.00;18.00;14.25
77413;PMS7003;66486;49.992;19.164;2023-04-24T12:11:52;20.33;19.67;14.00
77413;PMS7003;66486;49.992;19.164;2023-04-24T12:14:21;18.50;18.50;14.75
77413;PMS7003;66486;49.992;19.164;2023-04-24T12:16:48;20.50;19.50;14.75
77413;PMS7003;66486;49.992;19.164;2023-04-24T12:19:23;20.00;20.00;16.00
77413;PMS7003;66486;49.992;19.164;2023-04-24T12:21:59;19.00;17.25;14.00
77413;PMS7003;66486;49.992;19.164;2023-04-24T12:24:29;19.50;19.50;14.00
77413;PMS7003;66486;49.992;19.164;2023-04-24T12:26:56;21.75;21.75;16.00
77413;PMS7003;66486;49.992;19.164;2023-04-24T12:29:24;18.50;18.00;14.75
77413;PMS7003;66486;49.992;19.164;2023-04-24T12:31:51;23.25;22.75;16.00
77413;PMS7003;66486;49.992;19.164;2023-04-24T12:34:20;22.00;21.00;15.50
77413;PMS7003;66486;49.992;19.164;2023-04-24T12:36:48;17.00;17.00;15.00
77413;PMS7003;66486;49.992;19.164;2023-04-24T12:39:15;22.50;21.75;16.75
77413;PMS7003;66486;49.992;19.164;2023-04-24T12:42:15;29.00;27.75;18.50
77413;PMS7003;66486;49.992;19.164;2023-04-24T12:44:34;27.75;26.75;19.50
77413;PMS7003;66486;49.992;19.164;2023-04-24T12:47:02;25.75;25.00;18.50
77413;PMS7003;66486;49.992;19.164;2023-04-24T12:49:29;26.75;26.75;17.25
77413;PMS7003;66486;49.992;19.164;2023-04-24T12:51:56;22.00;21.00;16.00
77413;PMS7003;66486;49.992;19.164;2023-04-24T12:54:22;24.50;23.50;16.75
77413;PMS7003;66486;49.992;19.164;2023-04-24T12:56:48;25.00;24.25;16.75
77413;PMS7003;66486;49.992;19.164;2023-04-24T12:59:14;23.50;23.50;16.75
77413;PMS7003;66486;49.992;19.164;2023-04-24T13:01:40;14.00;14.00;11.33
77413;PMS7003;66486;49.992;19.164;2023-04-24T13:04:07;20.50;20.50;15.25
77413;PMS7003;66486;49.992;19.164;2023-04-24T13:06:32;13.00;13.00;11.33
77413;PMS7003;66486;49.992;19.164;2023-04-24T13:08:59;19.40;18.40;14.80
77413;PMS7003;66486;49.992;19.164;2023-04-24T13:11:25;12.75;12.75;10.00
77413;PMS7003;66486;49.992;19.164;2023-04-24T13:13:51;18.80;18.80;14.80
77413;PMS7003;66486;49.992;19.164;2023-04-24T13:16:17;18.33;18.00;13.33
77413;PMS7003;66486;49.992;19.164;2023-04-24T13:18:43;17.75;17.75;14.25
77413;PMS7003;66486;49.992;19.164;2023-04-24T13:21:09;18.00;18.00;10.00
77413;PMS7003;66486;49.992;19.164;2023-04-24T13:23:35;16.00;16.00;12.00
77413;PMS7003;66486;49.992;19.164;2023-04-24T13:26:01;14.67;14.67;10.33
77413;PMS7003;66486;49.992;19.164;2023-04-24T13:28:28;18.00;16.50;11.75
77413;PMS7003;66486;49.992;19.164;2023-04-24T13:30:55;15.75;15.00;10.50
77413;PMS7003;66486;49.992;19.164;2023-04-24T13:33:21;12.50;11.00;9.75
77413;PMS7003;66486;49.992;19.164;2023-04-24T13:35:47;16.00;16.00;11.00
77413;PMS7003;66486;49.992;19.164;2023-04-24T13:38:13;7.00;7.00;5.00
77413;PMS7003;66486;49.992;19.164;2023-04-24T13:40:39;12.33;12.33;10.33
77413;PMS7003;66486;49.992;19.164;2023-04-24T13:43:05;16.00;15.25;10.75
77413;PMS7003;66486;49.992;19.164;2023-04-24T13:45:31;9.33;8.33;6.33
77413;PMS7003;66486;49.992;19.164;2023-04-24T13:47:57;8.00;8.00;6.50
77413;PMS7003;66486;49.992;19.164;2023-04-24T13:50:23;7.00;7.00;6.00